createdAt,value
2023-04-23T00:00:52.364Z,97448.15
2023-04-23T00:03:35.760Z,97445.66
2023-04-23T00:06:04.500Z,97445.89
2023-04-23T00:08:31.437Z,97446.70
2023-04-23T00:10:58.259Z,97447.73
2023-04-23T00:13:25.156Z,97449.79
2023-04-23T00:15:51.672Z,97446.84
2023-04-23T00:18:18.001Z,97447.10
2023-04-23T00:20:44.503Z,97443.27
2023-04-23T00:23:10.755Z,97446.27
2023-04-23T00:25:37.048Z,97443.50
2023-04-23T00:28:03.526Z,97441.22
2023-04-23T00:30:29.805Z,97442.91
2023-04-23T00:32:56.235Z,97441.44
2023-04-23T00:35:22.703Z,97441.46
2023-04-23T00:37:48.995Z,97437.80
2023-04-23T00:40:15.312Z,97436.02
2023-04-23T00:42:41.875Z,97435.95
2023-04-23T00:45:08.361Z,97437.10
2023-04-23T00:47:35.151Z,97439.30
2023-04-23T00:50:04.144Z,97433.02
2023-04-23T00:52:30.466Z,97436.48
2023-04-23T00:54:56.832Z,97437.66
2023-04-23T00:57:23.623Z,97439.27
2023-04-23T00:59:50.104Z,97441.88
2023-04-23T01:02:16.605Z,97440.49
2023-04-23T01:04:43.465Z,97443.05
2023-04-23T01:07:11.836Z,97442.26
2023-04-23T01:09:38.322Z,97440.08
2023-04-23T01:12:05.148Z,97442.23
2023-04-23T01:14:31.887Z,97441.13
2023-04-23T01:16:58.708Z,97439.09
2023-04-23T01:19:25.132Z,97439.88
2023-04-23T01:21:51.502Z,97442.83
2023-04-23T01:24:17.751Z,97443.54
2023-04-23T01:26:45.252Z,97441.89
2023-04-23T01:29:12.327Z,97443.62
2023-04-23T01:31:39.231Z,97442.91
2023-04-23T01:34:08.675Z,97439.65
2023-04-23T01:36:34.994Z,97442.86
2023-04-23T01:39:02.122Z,97439.35
2023-04-23T01:41:28.670Z,97440.61
2023-04-23T01:43:56.524Z,97437.75
2023-04-23T01:46:23.044Z,97434.20
2023-04-23T01:48:49.496Z,97438.87
2023-04-23T01:51:15.986Z,97440.55
2023-04-23T01:53:42.355Z,97434.92
2023-04-23T01:56:08.957Z,97437.66
2023-04-23T01:58:35.465Z,97436.48
2023-04-23T02:01:01.874Z,97434.87
2023-04-23T02:03:28.670Z,97435.65
2023-04-23T02:05:55.624Z,97438.20
2023-04-23T02:08:22.202Z,97443.50
2023-04-23T02:10:48.773Z,97444.50
2023-04-23T02:13:15.149Z,97438.45
2023-04-23T02:15:41.504Z,97437.60
2023-04-23T02:18:08.193Z,97438.66
2023-04-23T02:20:34.497Z,97437.90
2023-04-23T02:23:03.907Z,97432.48
2023-04-23T02:25:30.286Z,97434.52
2023-04-23T02:27:56.750Z,97432.52
2023-04-23T02:30:23.260Z,97434.05
2023-04-23T02:32:49.833Z,97432.90
2023-04-23T02:35:16.794Z,97431.17
2023-04-23T02:37:43.291Z,97431.02
2023-04-23T02:40:09.835Z,97427.48
2023-04-23T02:42:36.220Z,97429.80
2023-04-23T02:45:02.568Z,97424.98
2023-04-23T02:47:29.563Z,97424.98
2023-04-23T02:49:55.902Z,97422.29
2023-04-23T02:52:22.272Z,97422.63
2023-04-23T02:54:48.694Z,97425.95
2023-04-23T02:57:15.023Z,97424.44
2023-04-23T02:59:41.789Z,97421.23
2023-04-23T03:02:08.344Z,97420.64
2023-04-23T03:04:34.743Z,97422.15
2023-04-23T03:07:01.102Z,97421.33
2023-04-23T03:09:27.913Z,97417.21
2023-04-23T03:11:54.315Z,97420.73
2023-04-23T03:14:20.553Z,97420.16
2023-04-23T03:16:47.265Z,97417.73
2023-04-23T03:19:14.282Z,97420.64
2023-04-23T03:21:40.574Z,97421.73
2023-04-23T03:24:07.235Z,97421.45
2023-04-23T03:26:33.633Z,97421.63
2023-04-23T03:29:00.008Z,97414.84
2023-04-23T03:31:26.406Z,97416.11
2023-04-23T03:33:52.930Z,97417.73
2023-04-23T03:36:23.718Z,97422.67
2023-04-23T03:38:50.282Z,97423.73
2023-04-23T03:41:17.514Z,97422.16
2023-04-23T03:43:43.889Z,97423.59
2023-04-23T03:46:17.972Z,97422.36
2023-04-23T03:48:44.439Z,97423.34
2023-04-23T03:51:20.627Z,97422.15
2023-04-23T03:53:48.887Z,97422.48
2023-04-23T03:56:44.431Z,97427.52
2023-04-23T03:59:32.637Z,97427.46
2023-04-23T04:01:59.209Z,97429.48
2023-04-23T04:04:26.078Z,97425.48
2023-04-23T04:06:54.163Z,97428.13
2023-04-23T04:09:24.099Z,97429.42
2023-04-23T04:11:52.879Z,97430.18
2023-04-23T04:14:19.888Z,97423.88
2023-04-23T04:16:46.299Z,97423.39
2023-04-23T04:19:12.709Z,97425.63
2023-04-23T04:21:38.970Z,97423.98
2023-04-23T04:24:05.534Z,97425.39
2023-04-23T04:26:32.114Z,97424.60
2023-04-23T04:28:58.643Z,97424.02
2023-04-23T04:31:25.384Z,97422.55
2023-04-23T04:33:51.686Z,97424.41
2023-04-23T04:36:17.999Z,97420.77
2023-04-23T04:38:44.328Z,97423.64
2023-04-23T04:41:10.622Z,97423.17
2023-04-23T04:43:37.209Z,97428.24
2023-04-23T04:46:06.603Z,97424.48
2023-04-23T04:48:33.730Z,97421.95
2023-04-23T04:51:00.034Z,97423.38
2023-04-23T04:53:26.349Z,97424.88
2023-04-23T04:55:52.664Z,97426.36
2023-04-23T04:58:19.101Z,97429.57
2023-04-23T05:00:45.653Z,97432.65
2023-04-23T05:03:14.125Z,97431.91
2023-04-23T05:05:40.933Z,97427.09
2023-04-23T05:08:07.230Z,97425.73
2023-04-23T05:10:33.701Z,97426.52
2023-04-23T05:13:00.110Z,97421.34
2023-04-23T05:15:26.851Z,97424.05
2023-04-23T05:17:53.351Z,97425.53
2023-04-23T05:20:20.180Z,97424.27
2023-04-23T05:22:46.833Z,97426.42
2023-04-23T05:25:13.347Z,97425.88
2023-04-23T05:27:40.083Z,97426.80
2023-04-23T05:30:07.600Z,97425.10
2023-04-23T05:32:34.080Z,97429.00
2023-04-23T05:35:01.171Z,97430.21
2023-04-23T05:37:28.048Z,97432.02
2023-04-23T05:39:54.409Z,97431.00
2023-04-23T05:42:21.184Z,97431.04
2023-04-23T05:44:47.601Z,97430.74
2023-04-23T05:47:14.025Z,97427.84
2023-04-23T05:49:40.414Z,97427.50
2023-04-23T05:52:06.970Z,97427.83
2023-04-23T05:54:33.304Z,97423.52
2023-04-23T05:56:59.665Z,97422.06
2023-04-23T05:59:26.152Z,97421.80
2023-04-23T06:01:52.479Z,97419.69
2023-04-23T06:04:19.176Z,97420.88
2023-04-23T06:06:48.496Z,97423.11
2023-04-23T06:09:15.185Z,97423.11
2023-04-23T06:11:44.006Z,97421.33
2023-04-23T06:14:10.593Z,97421.20
2023-04-23T06:16:37.013Z,97423.91
2023-04-23T06:19:08.729Z,97424.94
2023-04-23T06:21:35.259Z,97422.89
2023-04-23T06:24:01.633Z,97422.33
2023-04-23T06:26:28.019Z,97423.55
2023-04-23T06:28:54.883Z,97422.09
2023-04-23T06:31:34.991Z,97421.71
2023-04-23T06:34:01.324Z,97421.63
2023-04-23T06:36:27.945Z,97419.77
2023-04-23T06:38:54.237Z,97417.30
2023-04-23T06:41:23.886Z,97412.05
2023-04-23T06:44:00.382Z,97412.31
2023-04-23T06:46:35.622Z,97409.58
2023-04-23T06:49:01.974Z,97411.23
2023-04-23T06:51:28.412Z,97407.83
2023-04-23T06:53:54.709Z,97403.60
2023-04-23T06:56:21.153Z,97401.91
2023-04-23T06:58:47.496Z,97400.89
2023-04-23T07:01:18.609Z,97401.73
2023-04-23T07:03:45.354Z,97401.39
2023-04-23T07:06:12.255Z,97403.13
2023-04-23T07:08:38.581Z,97400.85
2023-04-23T07:11:05.037Z,97397.16
2023-04-23T07:13:31.500Z,97395.69
2023-04-23T07:15:58.029Z,97395.38
2023-04-23T07:18:24.365Z,97394.17
2023-04-23T07:20:50.669Z,97392.52
2023-04-23T07:23:17.101Z,97394.05
2023-04-23T07:25:43.552Z,97395.95
2023-04-23T07:28:09.902Z,97395.77
2023-04-23T07:30:36.345Z,97393.32
2023-04-23T07:33:02.788Z,97390.15
2023-04-23T07:35:29.215Z,97391.63
2023-04-23T07:37:55.969Z,97392.51
2023-04-23T07:40:22.781Z,97389.68
2023-04-23T07:42:49.510Z,97386.83
2023-04-23T07:45:16.039Z,97391.23
2023-04-23T07:47:42.401Z,97387.67
2023-04-23T07:50:09.208Z,97385.19
2023-04-23T07:52:35.830Z,97384.20
2023-04-23T07:55:02.315Z,97379.08
2023-04-23T07:57:28.780Z,97380.30
2023-04-23T07:59:55.399Z,97379.77
2023-04-23T08:02:27.228Z,97377.61
2023-04-23T08:04:54.029Z,97370.23
2023-04-23T08:07:23.762Z,97371.31
2023-04-23T08:09:50.103Z,97364.52
2023-04-23T08:12:16.550Z,97362.89
2023-04-23T08:14:43.322Z,97363.71
2023-04-23T08:17:12.867Z,97360.96
2023-04-23T08:19:39.378Z,97362.14
2023-04-23T08:22:06.043Z,97362.00
2023-04-23T08:24:32.530Z,97362.95
2023-04-23T08:26:58.963Z,97353.83
2023-04-23T08:29:25.519Z,97354.11
2023-04-23T08:31:52.069Z,97350.52
2023-04-23T08:34:18.532Z,97351.16
2023-04-23T08:36:45.096Z,97345.73
2023-04-23T08:39:11.649Z,97350.77
2023-04-23T08:41:38.918Z,97348.64
2023-04-23T08:44:26.324Z,97350.14
2023-04-23T08:46:56.314Z,97344.76
2023-04-23T08:49:22.780Z,97340.05
2023-04-23T08:51:51.524Z,97339.92
2023-04-23T08:54:20.842Z,97337.65
2023-04-23T08:56:47.500Z,97333.38
2023-04-23T08:59:14.502Z,97329.91
2023-04-23T09:01:41.203Z,97332.91
2023-04-23T09:04:08.332Z,97330.79
2023-04-23T09:06:35.587Z,97330.23
2023-04-23T09:09:02.444Z,97330.98
2023-04-23T09:11:29.295Z,97333.29
2023-04-23T09:14:03.658Z,97329.04
2023-04-23T09:16:30.379Z,97332.33
2023-04-23T09:18:58.123Z,97328.83
2023-04-23T09:21:24.668Z,97326.49
2023-04-23T09:23:51.247Z,97319.59
2023-04-23T09:26:21.499Z,97323.83
2023-04-23T09:28:51.025Z,97322.05
2023-04-23T09:31:23.866Z,97316.90
2023-04-23T09:33:54.093Z,97316.09
2023-04-23T09:36:23.645Z,97317.61
2023-04-23T09:38:50.153Z,97310.06
2023-04-23T09:41:20.154Z,97314.41
2023-04-23T09:43:47.167Z,97310.02
2023-04-23T09:46:13.602Z,97314.49
2023-04-23T09:48:42.844Z,97308.48
2023-04-23T09:51:28.998Z,97305.65
2023-04-23T09:53:55.581Z,97308.52
2023-04-23T09:56:21.979Z,97303.80
2023-04-23T09:58:48.290Z,97296.12
2023-04-23T10:01:14.731Z,97287.06
2023-04-23T10:03:44.350Z,97286.88
2023-04-23T10:06:21.711Z,97283.49
2023-04-23T10:09:04.913Z,97279.98
2023-04-23T10:11:31.396Z,97281.08
2023-04-23T10:14:00.565Z,97279.19
2023-04-23T10:16:35.580Z,97274.15
2023-04-23T10:19:09.113Z,97271.48
2023-04-23T10:21:53.455Z,97268.83
2023-04-23T10:24:28.241Z,97266.98
2023-04-23T10:27:17.696Z,97257.48
2023-04-23T10:29:53.586Z,97263.33
2023-04-23T10:32:20.582Z,97256.85
2023-04-23T10:34:47.317Z,97252.23
2023-04-23T10:37:14.323Z,97247.70
2023-04-23T10:39:43.302Z,97248.55
2023-04-23T10:42:10.014Z,97249.38
2023-04-23T10:47:11.154Z,97246.15
2023-04-23T10:49:37.960Z,97245.98
2023-04-23T10:52:19.619Z,97238.66
2023-04-23T10:54:49.352Z,97243.26
2023-04-23T10:57:16.053Z,97238.35
2023-04-23T10:59:52.844Z,97238.54
2023-04-23T11:02:19.338Z,97235.11
2023-04-23T11:04:47.046Z,97238.67
2023-04-23T11:07:13.960Z,97224.98
2023-04-23T11:09:41.758Z,97226.81
2023-04-23T11:12:10.112Z,97222.73
2023-04-23T11:14:36.536Z,97222.91
2023-04-23T11:17:03.957Z,97231.23
2023-04-23T11:19:30.333Z,97226.61
2023-04-23T11:21:56.865Z,97223.75
2023-04-23T11:24:23.606Z,97224.39
2023-04-23T11:26:51.463Z,97223.15
2023-04-23T11:29:21.529Z,97223.02
2023-04-23T11:32:01.575Z,97223.69
2023-04-23T11:34:29.496Z,97222.73
2023-04-23T11:36:57.733Z,97216.71
2023-04-23T11:39:24.100Z,97216.53
2023-04-23T11:41:51.018Z,97217.84
2023-04-23T11:44:18.526Z,97216.95
2023-04-23T11:46:45.795Z,97219.75
2023-04-23T11:49:12.834Z,97216.05
2023-04-23T11:51:43.143Z,97209.29
2023-04-23T11:54:10.214Z,97205.63
2023-04-23T11:56:45.827Z,97198.46
2023-04-23T11:59:14.705Z,97200.28
2023-04-23T12:01:45.393Z,97202.07
2023-04-23T12:04:20.041Z,97205.30
2023-04-23T12:06:47.374Z,97208.36
2023-04-23T12:09:14.532Z,97208.38
2023-04-23T12:11:48.386Z,97208.86
2023-04-23T12:14:14.976Z,97203.52
2023-04-23T12:16:45.421Z,97206.06
2023-04-23T12:19:14.846Z,97204.63
2023-04-23T12:21:47.593Z,97199.55
2023-04-23T12:24:16.829Z,97194.86
2023-04-23T12:26:43.269Z,97186.41
2023-04-23T12:29:12.098Z,97184.77
2023-04-23T12:31:38.653Z,97182.13
2023-04-23T12:34:08.892Z,97187.02
2023-04-23T12:36:38.226Z,97178.00
2023-04-23T12:39:24.493Z,97182.83
2023-04-23T12:41:55.543Z,97182.55
2023-04-23T12:44:22.175Z,97177.98
2023-04-23T12:46:49.387Z,97178.70
2023-04-23T12:49:20.026Z,97178.86
2023-04-23T12:51:46.597Z,97177.73
2023-04-23T12:54:15.241Z,97176.77
2023-04-23T12:56:41.739Z,97168.85
2023-04-23T12:59:08.341Z,97163.01
2023-04-23T13:01:34.866Z,97167.77
2023-04-23T13:04:01.219Z,97167.49
2023-04-23T13:06:27.610Z,97165.98
2023-04-23T13:08:54.248Z,97166.63
2023-04-23T13:11:21.233Z,97168.62
2023-04-23T13:13:47.942Z,97159.38
2023-04-23T13:16:14.713Z,97160.36
2023-04-23T13:18:41.203Z,97150.52
2023-04-23T13:21:09.208Z,97151.98
2023-04-23T13:23:35.789Z,97150.58
2023-04-23T13:26:09.278Z,97146.23
2023-04-23T13:28:37.186Z,97142.34
2023-04-23T13:31:03.646Z,97148.77
2023-04-23T13:33:30.286Z,97143.62
2023-04-23T13:35:57.396Z,97137.07
2023-04-23T13:38:27.382Z,97142.45
2023-04-23T13:40:56.180Z,97141.10
2023-04-23T13:43:32.543Z,97132.66
2023-04-23T13:45:59.110Z,97136.44
2023-04-23T13:48:25.563Z,97135.63
2023-04-23T13:50:57.108Z,97129.88
2023-04-23T13:53:24.185Z,97124.86
2023-04-23T13:55:50.917Z,97120.34
2023-04-23T13:58:20.524Z,97116.38
2023-04-23T14:00:50.218Z,97108.86
2023-04-23T14:03:17.114Z,97103.45
2023-04-23T14:05:43.669Z,97104.87
2023-04-23T14:08:23.857Z,97102.36
2023-04-23T14:10:53.712Z,97104.61
2023-04-23T14:13:21.717Z,97105.43
2023-04-23T14:15:48.207Z,97108.67
2023-04-23T14:18:14.618Z,97103.25
2023-04-23T14:20:41.338Z,97104.68
2023-04-23T14:23:30.852Z,97103.72
2023-04-23T14:25:58.270Z,97102.40
2023-04-23T14:28:37.034Z,97099.66
2023-04-23T14:31:07.044Z,97097.27
2023-04-23T14:33:33.458Z,97097.38
2023-04-23T14:36:00.054Z,97091.05
2023-04-23T14:38:32.405Z,97089.30
2023-04-23T14:41:01.232Z,97089.69
2023-04-23T14:43:27.727Z,97088.77
2023-04-23T14:46:05.863Z,97091.11
2023-04-23T14:48:32.440Z,97086.69
2023-04-23T14:51:07.731Z,97088.61
2023-04-23T14:53:34.271Z,97085.77
2023-04-23T14:56:00.684Z,97080.39
2023-04-23T14:58:27.209Z,97075.33
2023-04-23T15:01:12.396Z,97075.34
2023-04-23T15:03:39.453Z,97074.52
2023-04-23T15:06:14.726Z,97073.36
2023-04-23T15:08:41.754Z,97073.53
2023-04-23T15:11:08.301Z,97074.30
2023-04-23T15:13:34.719Z,97074.73
2023-04-23T15:16:07.400Z,97076.64
2023-04-23T15:18:35.129Z,97070.48
2023-04-23T15:21:02.707Z,97070.42
2023-04-23T15:23:33.052Z,97070.10
2023-04-23T15:26:02.980Z,97072.71
2023-04-23T15:28:30.334Z,97070.56
2023-04-23T15:30:57.951Z,97069.18
2023-04-23T15:33:24.683Z,97073.36
2023-04-23T15:35:51.397Z,97065.54
2023-04-23T15:38:20.517Z,97065.91
2023-04-23T15:40:50.183Z,97064.55
2023-04-23T15:43:17.159Z,97060.69
2023-04-23T15:45:43.790Z,97059.27
2023-04-23T15:48:10.169Z,97059.48
2023-04-23T15:50:36.610Z,97060.55
2023-04-23T15:53:08.468Z,97054.73
2023-04-23T15:55:34.973Z,97057.89
2023-04-23T15:58:01.541Z,97057.34
2023-04-23T16:00:28.063Z,97057.19
2023-04-23T16:02:54.988Z,97054.95
2023-04-23T16:05:21.512Z,97055.10
2023-04-23T16:07:59.174Z,97053.55
2023-04-23T16:10:28.823Z,97051.70
2023-04-23T16:12:57.793Z,97049.47
2023-04-23T16:15:31.610Z,97045.23
2023-04-23T16:17:58.108Z,97039.11
2023-04-23T16:20:25.172Z,97040.61
2023-04-23T16:22:51.762Z,97039.58
2023-04-23T16:25:18.725Z,97038.27
2023-04-23T16:27:57.513Z,97037.35
2023-04-23T16:30:24.121Z,97034.55
2023-04-23T16:32:50.638Z,97039.60
2023-04-23T16:35:25.577Z,97037.45
2023-04-23T16:37:52.184Z,97035.48
2023-04-23T16:40:21.648Z,97038.86
2023-04-23T16:42:48.041Z,97035.68
2023-04-23T16:45:14.452Z,97032.21
2023-04-23T16:47:40.798Z,97034.15
2023-04-23T16:50:10.003Z,97031.52
2023-04-23T16:52:38.253Z,97032.44
2023-04-23T16:55:06.294Z,97032.42
2023-04-23T16:57:42.895Z,97033.49
2023-04-23T17:00:09.563Z,97033.55
2023-04-23T17:02:36.671Z,97033.97
2023-04-23T17:05:05.664Z,97035.72
2023-04-23T17:07:33.313Z,97037.41
2023-04-23T17:10:01.324Z,97035.02
2023-04-23T17:12:28.393Z,97038.29
2023-04-23T17:15:15.044Z,97033.75
2023-04-23T17:17:41.692Z,97030.88
2023-04-23T17:20:08.635Z,97032.14
2023-04-23T17:22:37.815Z,97031.90
2023-04-23T17:25:04.360Z,97029.15
2023-04-23T17:27:39.883Z,97032.09
2023-04-23T17:30:06.614Z,97029.40
2023-04-23T17:32:33.191Z,97029.58
2023-04-23T17:35:09.282Z,97028.26
2023-04-23T17:37:37.255Z,97027.73
2023-04-23T17:40:03.992Z,97026.86
2023-04-23T17:42:30.690Z,97027.63
2023-04-23T17:44:57.323Z,97025.20
2023-04-23T17:47:23.754Z,97028.50
2023-04-23T17:49:50.395Z,97026.98
2023-04-23T17:52:17.577Z,97031.35
2023-04-23T17:54:44.480Z,97031.45
2023-04-23T17:57:22.878Z,97031.44
2023-04-23T17:59:59.609Z,97030.73
2023-04-23T18:02:29.360Z,97033.03
2023-04-23T18:04:56.230Z,97032.26
2023-04-23T18:07:27.058Z,97031.61
2023-04-23T18:10:01.910Z,97032.22
2023-04-23T18:12:31.807Z,97032.70
2023-04-23T18:14:58.264Z,97039.57
2023-04-23T18:17:25.484Z,97038.20
2023-04-23T18:19:54.683Z,97038.27
2023-04-23T18:22:21.193Z,97044.85
2023-04-23T18:24:50.785Z,97046.85
2023-04-23T18:27:20.425Z,97045.76
2023-04-23T18:29:46.972Z,97047.15
2023-04-23T18:32:20.869Z,97048.77
2023-04-23T18:34:50.823Z,97052.24
2023-04-23T18:37:37.120Z,97052.73
2023-04-23T18:40:05.549Z,97052.41
2023-04-23T18:42:32.427Z,97053.13
2023-04-23T18:44:59.116Z,97058.70
2023-04-23T18:47:30.285Z,97061.14
2023-04-23T18:50:00.516Z,97069.48
2023-04-23T18:52:27.115Z,97071.77
2023-04-23T18:55:02.748Z,97069.13
2023-04-23T18:57:29.908Z,97069.90
2023-04-23T18:59:57.428Z,97066.75
2023-04-23T19:02:34.382Z,97065.77
2023-04-23T19:05:04.309Z,97069.34
2023-04-23T19:07:31.095Z,97067.52
2023-04-23T19:09:57.587Z,97068.54
2023-04-23T19:12:24.020Z,97067.92
2023-04-23T19:15:11.161Z,97065.71
2023-04-23T19:17:39.878Z,97064.52
2023-04-23T19:20:07.408Z,97065.74
2023-04-23T19:22:33.935Z,97065.08
2023-04-23T19:25:01.857Z,97064.89
2023-04-23T19:27:31.377Z,97067.67
2023-04-23T19:29:58.166Z,97064.83
2023-04-23T19:32:24.887Z,97063.20
2023-04-23T19:34:51.417Z,97063.98
2023-04-23T19:37:20.557Z,97062.73
2023-04-23T19:39:56.516Z,97059.73
2023-04-23T19:42:23.162Z,97056.02
2023-04-23T19:44:49.864Z,97054.80
2023-04-23T19:47:16.543Z,97056.87
2023-04-23T19:49:43.692Z,97053.70
2023-04-23T19:52:18.959Z,97052.32
2023-04-23T19:54:45.497Z,97050.46
2023-04-23T19:57:12.029Z,97047.49
2023-04-23T19:59:41.855Z,97046.63
2023-04-23T20:02:08.549Z,97046.05
2023-04-23T20:04:35.036Z,97042.60
2023-04-23T20:07:01.635Z,97044.00
2023-04-23T20:09:28.308Z,97039.21
2023-04-23T20:11:54.829Z,97038.06
2023-04-23T20:14:21.159Z,97037.05
2023-04-23T20:16:49.996Z,97036.20
2023-04-23T20:19:16.626Z,97035.21
2023-04-23T20:21:42.979Z,97035.48
2023-04-23T20:24:09.766Z,97041.56
2023-04-23T20:26:36.829Z,97042.92
2023-04-23T20:29:03.607Z,97043.67
2023-04-23T20:31:30.541Z,97038.64
2023-04-23T20:33:57.438Z,97043.52
2023-04-23T20:36:24.248Z,97044.92
2023-04-23T20:38:50.790Z,97043.16
2023-04-23T20:41:17.272Z,97043.19
2023-04-23T20:43:43.779Z,97044.02
2023-04-23T20:46:10.547Z,97036.39
2023-04-23T20:48:36.933Z,97034.89
2023-04-23T20:51:03.499Z,97035.36
2023-04-23T20:53:30.560Z,97034.57
2023-04-23T20:55:59.351Z,97034.65
2023-04-23T20:58:25.822Z,97035.87
2023-04-23T21:00:52.802Z,97034.48
2023-04-23T21:03:19.376Z,97035.61
2023-04-23T21:05:46.055Z,97030.59
2023-04-23T21:08:12.608Z,97033.14
2023-04-23T21:10:39.574Z,97032.69
2023-04-23T21:13:06.790Z,97031.59
2023-04-23T21:15:33.267Z,97032.30
2023-04-23T21:17:59.922Z,97030.85
2023-04-23T21:20:26.520Z,97030.52
2023-04-23T21:22:53.270Z,97026.13
2023-04-23T21:25:19.685Z,97028.02
2023-04-23T21:27:48.456Z,97029.86
2023-04-23T21:30:30.448Z,97029.56
2023-04-23T21:32:56.912Z,97028.80
2023-04-23T21:35:23.244Z,97025.39
2023-04-23T21:37:49.651Z,97022.95
2023-04-23T21:40:16.008Z,97021.50
2023-04-23T21:42:42.757Z,97024.41
2023-04-23T21:45:09.288Z,97024.38
2023-04-23T21:47:35.619Z,97022.15
2023-04-23T21:50:02.039Z,97025.84
2023-04-23T21:52:28.400Z,97022.84
2023-04-23T21:54:54.895Z,97021.71
2023-04-23T21:57:21.283Z,97021.23
2023-04-23T21:59:47.983Z,97020.33
2023-04-23T22:02:14.876Z,97022.75
2023-04-23T22:04:41.431Z,97019.82
2023-04-23T22:07:07.814Z,97019.51
2023-04-23T22:09:34.114Z,97018.98
2023-04-23T22:12:02.579Z,97019.20
2023-04-23T22:14:29.271Z,97020.13
2023-04-23T22:17:06.163Z,97023.30
2023-04-23T22:19:37.917Z,97021.20
2023-04-23T22:22:04.459Z,97020.24
2023-04-23T22:24:30.962Z,97020.33
2023-04-23T22:26:59.632Z,97022.33
2023-04-23T22:29:26.336Z,97018.14
2023-04-23T22:31:52.915Z,97016.85
2023-04-23T22:34:19.320Z,97011.75
2023-04-23T22:36:50.540Z,97007.59
2023-04-23T22:39:16.997Z,97005.57
2023-04-23T22:41:43.344Z,97000.40
2023-04-23T22:44:10.023Z,97005.20
2023-04-23T22:46:36.634Z,97004.25
2023-04-23T22:49:03.125Z,97003.67
2023-04-23T22:51:29.533Z,97004.38
2023-04-23T22:53:55.825Z,97004.67
2023-04-23T22:56:22.181Z,97005.91
2023-04-23T22:58:48.572Z,97006.16
2023-04-23T23:01:14.895Z,97005.76
2023-04-23T23:03:41.213Z,97003.10
2023-04-23T23:06:07.725Z,97000.85
2023-04-23T23:08:34.036Z,97001.27
2023-04-23T23:11:00.369Z,96998.50
2023-04-23T23:13:26.708Z,96997.75
2023-04-23T23:15:55.713Z,96995.23
2023-04-23T23:18:22.122Z,96992.31
2023-04-23T23:20:48.465Z,96992.16
2023-04-23T23:23:14.868Z,96989.79
2023-04-23T23:25:41.154Z,96983.45
2023-04-23T23:28:07.567Z,96978.66
2023-04-23T23:30:34.065Z,96979.48
2023-04-23T23:33:00.471Z,96981.75
2023-04-23T23:35:26.818Z,96983.20
2023-04-23T23:37:53.079Z,96983.00
2023-04-23T23:40:19.439Z,96980.30
2023-04-23T23:42:45.779Z,96982.83
2023-04-23T23:45:12.162Z,96982.17
2023-04-23T23:47:38.561Z,96982.08
2023-04-23T23:50:08.062Z,96977.95
2023-04-23T23:52:34.438Z,96977.79
2023-04-23T23:55:00.735Z,96973.44
2023-04-23T23:57:27.060Z,96970.31
2023-04-23T23:59:53.398Z,96968.42
